createdAt,value
2019-02-18T00:00:38.871Z,89.40
2019-02-18T00:03:08.448Z,89.70
2019-02-18T00:05:38.099Z,90.00
2019-02-18T00:08:07.643Z,90.00
2019-02-18T00:10:37.182Z,90.10
2019-02-18T00:13:06.767Z,90.10
2019-02-18T00:15:36.289Z,90.30
2019-02-18T00:18:05.863Z,90.40
2019-02-18T00:20:35.376Z,90.40
2019-02-18T00:23:04.861Z,90.40
2019-02-18T00:25:34.344Z,90.40
2019-02-18T00:28:03.879Z,90.50
2019-02-18T00:30:33.403Z,90.60
2019-02-18T00:33:02.874Z,90.70
2019-02-18T00:35:32.285Z,90.70
2019-02-18T00:38:01.727Z,90.80
2019-02-18T00:40:31.215Z,90.80
2019-02-18T00:43:00.702Z,90.90
2019-02-18T00:45:30.183Z,91.00
2019-02-18T00:48:00.701Z,91.00
2019-02-18T00:50:30.316Z,91.30
2019-02-18T00:52:59.868Z,91.00
2019-02-18T00:55:29.513Z,91.10
2019-02-18T00:57:59.117Z,91.20
2019-02-18T01:00:28.661Z,91.30
2019-02-18T01:02:58.462Z,91.30
2019-02-18T01:05:28.034Z,91.30
2019-02-18T01:07:57.888Z,91.30
2019-02-18T01:10:27.507Z,91.40
2019-02-18T01:12:57.103Z,91.40
2019-02-18T01:15:26.586Z,91.40
2019-02-18T01:17:56.140Z,91.40
2019-02-18T01:20:25.739Z,91.40
2019-02-18T01:22:55.268Z,91.40
2019-02-18T01:25:24.820Z,91.50
2019-02-18T01:27:54.586Z,91.60
2019-02-18T01:30:24.258Z,91.70
2019-02-18T01:32:54.008Z,91.70
2019-02-18T01:35:23.656Z,91.80
2019-02-18T01:37:53.353Z,91.80
2019-02-18T01:40:23.111Z,91.70
2019-02-18T01:42:52.643Z,91.80
2019-02-18T01:45:22.140Z,91.80
2019-02-18T01:47:51.850Z,91.80
2019-02-18T01:50:21.502Z,91.80
2019-02-18T01:52:51.108Z,91.90
2019-02-18T01:55:20.624Z,91.90
2019-02-18T01:57:50.246Z,92.10
2019-02-18T02:00:19.916Z,92.10
2019-02-18T02:02:49.356Z,92.10
2019-02-18T02:05:19.005Z,92.10
2019-02-18T02:07:55.823Z,92.10
2019-02-18T02:10:19.865Z,92.20
2019-02-18T02:12:49.400Z,92.20
2019-02-18T02:15:28.130Z,92.10
2019-02-18T02:17:57.797Z,92.10
2019-02-18T02:20:27.249Z,92.10
2019-02-18T02:22:56.791Z,92.10
2019-02-18T02:25:26.239Z,92.20
2019-02-18T02:27:55.694Z,92.20
2019-02-18T02:30:25.141Z,92.20
2019-02-18T02:32:54.612Z,92.20
2019-02-18T02:35:24.126Z,92.30
2019-02-18T02:37:53.599Z,92.30
2019-02-18T02:40:23.048Z,92.40
2019-02-18T02:42:52.513Z,92.40
2019-02-18T02:45:22.021Z,92.40
2019-02-18T02:47:51.505Z,92.50
2019-02-18T02:50:20.963Z,92.50
2019-02-18T02:52:50.504Z,92.60
2019-02-18T02:55:19.986Z,92.60
2019-02-18T02:57:49.396Z,92.60
2019-02-18T03:00:18.939Z,92.60
2019-02-18T03:02:48.410Z,92.60
2019-02-18T03:05:17.950Z,92.50
2019-02-18T03:07:47.385Z,92.50
2019-02-18T03:10:16.875Z,92.50
2019-02-18T03:12:46.325Z,92.60
2019-02-18T03:15:16.288Z,92.60
2019-02-18T03:17:45.832Z,92.60
2019-02-18T03:20:15.726Z,92.70
2019-02-18T03:22:45.191Z,92.70
2019-02-18T03:25:26.583Z,92.80
2019-02-18T03:28:01.115Z,92.80
2019-02-18T03:30:53.858Z,92.70
2019-02-18T03:33:34.023Z,92.90
2019-02-18T03:36:03.479Z,93.00
2019-02-18T03:38:32.991Z,93.10
2019-02-18T03:41:03.537Z,93.20
2019-02-18T03:43:33.396Z,93.20
2019-02-18T03:46:02.839Z,93.10
2019-02-18T03:48:32.263Z,93.10
2019-02-18T03:51:01.779Z,93.10
2019-02-18T03:53:31.290Z,93.10
2019-02-18T03:56:00.925Z,93.10
2019-02-18T03:58:30.421Z,93.10
2019-02-18T04:01:00.071Z,93.10
2019-02-18T04:03:29.851Z,93.20
2019-02-18T04:05:59.277Z,93.20
2019-02-18T04:08:28.736Z,93.20
2019-02-18T04:10:58.261Z,93.20
2019-02-18T04:13:27.740Z,93.30
2019-02-18T04:15:57.163Z,93.20
2019-02-18T04:18:26.604Z,93.20
2019-02-18T04:20:56.090Z,93.10
2019-02-18T04:23:25.535Z,93.20
2019-02-18T04:25:55.028Z,93.10
2019-02-18T04:28:24.469Z,93.20
2019-02-18T04:30:53.919Z,93.30
2019-02-18T04:33:23.407Z,93.30
2019-02-18T04:35:52.850Z,93.40
2019-02-18T04:38:22.328Z,93.40
2019-02-18T04:40:51.763Z,93.50
2019-02-18T04:43:21.203Z,93.60
2019-02-18T04:45:50.692Z,93.60
2019-02-18T04:48:20.124Z,93.50
2019-02-18T04:50:49.579Z,93.50
2019-02-18T04:53:19.052Z,93.60
2019-02-18T04:55:48.531Z,93.50
2019-02-18T04:58:17.984Z,93.70
2019-02-18T05:00:47.459Z,93.60
2019-02-18T05:03:17.030Z,93.60
2019-02-18T05:05:46.471Z,93.50
2019-02-18T05:08:15.932Z,93.70
2019-02-18T05:10:45.538Z,93.60
2019-02-18T05:13:14.984Z,93.70
2019-02-18T05:15:44.438Z,93.90
2019-02-18T05:18:13.872Z,94.00
2019-02-18T05:20:43.327Z,93.90
2019-02-18T05:23:12.799Z,93.80
2019-02-18T05:25:42.267Z,93.60
2019-02-18T05:28:11.701Z,93.60
2019-02-18T05:30:41.178Z,93.70
2019-02-18T05:33:10.619Z,93.70
2019-02-18T05:35:40.096Z,93.90
2019-02-18T05:38:09.561Z,94.00
2019-02-18T05:40:39.020Z,94.00
2019-02-18T05:43:08.536Z,94.00
2019-02-18T05:45:38.005Z,93.90
2019-02-18T05:48:07.436Z,94.00
2019-02-18T05:50:36.917Z,94.00
2019-02-18T05:53:06.380Z,94.10
2019-02-18T05:55:35.848Z,94.00
2019-02-18T05:58:05.324Z,94.10
2019-02-18T06:00:34.854Z,94.20
2019-02-18T06:03:04.309Z,94.20
2019-02-18T06:05:33.775Z,94.20
2019-02-18T06:08:03.263Z,94.30
2019-02-18T06:10:32.722Z,94.20
2019-02-18T06:13:02.273Z,94.10
2019-02-18T06:15:31.752Z,94.20
2019-02-18T06:18:01.190Z,94.30
2019-02-18T06:20:30.633Z,94.40
2019-02-18T06:23:00.090Z,94.50
2019-02-18T06:25:29.564Z,94.50
2019-02-18T06:27:59.006Z,94.60
2019-02-18T06:30:28.457Z,94.60
2019-02-18T06:32:57.944Z,94.60
2019-02-18T06:35:27.374Z,94.50
2019-02-18T06:37:56.825Z,94.40
2019-02-18T06:40:26.290Z,94.40
2019-02-18T06:42:55.758Z,94.50
2019-02-18T06:45:43.291Z,94.50
2019-02-18T06:48:16.960Z,94.60
2019-02-18T06:50:46.455Z,94.60
2019-02-18T06:53:15.937Z,94.60
2019-02-18T06:55:45.419Z,94.80
2019-02-18T06:58:22.251Z,94.40
2019-02-18T07:00:59.310Z,94.80
2019-02-18T07:03:42.401Z,94.60
2019-02-18T07:06:13.528Z,94.50
2019-02-18T07:08:56.445Z,94.40
2019-02-18T07:11:27.562Z,94.50
2019-02-18T07:13:57.081Z,94.50
2019-02-18T07:16:26.549Z,94.50
2019-02-18T07:18:56.065Z,94.50
2019-02-18T07:21:25.511Z,94.70
2019-02-18T07:23:54.987Z,94.90
2019-02-18T07:26:24.477Z,94.90
2019-02-18T07:28:53.934Z,94.90
2019-02-18T07:31:23.478Z,95.00
2019-02-18T07:33:52.977Z,95.00
2019-02-18T07:36:22.426Z,95.00
2019-02-18T07:38:51.941Z,95.10
2019-02-18T07:41:21.424Z,95.00
2019-02-18T07:43:50.866Z,94.90
2019-02-18T07:46:20.517Z,94.80
2019-02-18T07:48:50.001Z,94.80
2019-02-18T07:51:19.523Z,94.90
2019-02-18T07:53:49.113Z,94.90
2019-02-18T07:56:18.769Z,94.80
2019-02-18T07:58:48.227Z,94.70
2019-02-18T08:01:17.672Z,94.60
2019-02-18T08:03:47.143Z,94.30
2019-02-18T08:06:16.653Z,94.30
2019-02-18T08:08:46.103Z,94.20
2019-02-18T08:11:15.655Z,94.00
2019-02-18T08:13:45.136Z,93.90
2019-02-18T08:16:14.588Z,93.80
2019-02-18T08:18:44.066Z,93.70
2019-02-18T08:21:13.571Z,93.50
2019-02-18T08:23:43.044Z,93.40
2019-02-18T08:26:12.624Z,93.30
2019-02-18T08:28:42.070Z,93.10
2019-02-18T08:31:11.654Z,93.10
2019-02-18T08:33:41.119Z,92.90
2019-02-18T08:36:10.582Z,92.80
2019-02-18T08:38:40.006Z,92.70
2019-02-18T08:41:09.523Z,92.70
2019-02-18T08:43:38.969Z,92.60
2019-02-18T08:46:08.489Z,92.50
2019-02-18T08:48:37.969Z,92.40
2019-02-18T08:51:07.435Z,92.30
2019-02-18T08:53:36.899Z,92.20
2019-02-18T08:56:08.094Z,92.00
2019-02-18T08:58:37.545Z,91.90
2019-02-18T09:01:07.865Z,91.80
2019-02-18T09:03:37.366Z,91.70
2019-02-18T09:06:06.848Z,91.60
2019-02-18T09:08:36.912Z,91.50
2019-02-18T09:11:06.510Z,91.20
2019-02-18T09:13:36.010Z,90.90
2019-02-18T09:16:05.472Z,90.60
2019-02-18T09:18:35.027Z,90.60
2019-02-18T09:21:04.568Z,90.10
2019-02-18T09:23:35.690Z,90.20
2019-02-18T09:26:05.332Z,90.30
2019-02-18T09:28:34.901Z,89.80
2019-02-18T09:31:04.531Z,89.70
2019-02-18T09:33:34.091Z,89.30
2019-02-18T09:36:03.585Z,89.40
2019-02-18T09:38:33.141Z,89.00
2019-02-18T09:41:02.633Z,88.00
2019-02-18T09:43:32.095Z,87.30
2019-02-18T09:46:01.572Z,86.30
2019-02-18T09:48:31.048Z,85.20
2019-02-18T09:51:00.545Z,83.80
2019-02-18T09:53:30.035Z,82.60
2019-02-18T09:55:59.490Z,81.90
2019-02-18T09:58:28.966Z,81.70
2019-02-18T10:00:58.477Z,79.00
2019-02-18T10:03:31.929Z,77.60
2019-02-18T10:05:59.249Z,77.80
2019-02-18T10:08:28.754Z,77.10
2019-02-18T10:10:58.249Z,76.10
2019-02-18T10:13:27.731Z,74.70
2019-02-18T10:15:57.300Z,73.10
2019-02-18T10:18:26.769Z,72.50
2019-02-18T10:20:56.225Z,70.90
2019-02-18T10:23:25.712Z,70.80
2019-02-18T10:25:55.182Z,69.70
2019-02-18T10:28:24.657Z,69.30
2019-02-18T10:30:54.099Z,68.10
2019-02-18T10:33:23.555Z,68.60
2019-02-18T10:35:53.054Z,68.90
2019-02-18T10:38:22.585Z,68.20
2019-02-18T10:40:52.068Z,66.70
2019-02-18T10:43:31.879Z,65.50
2019-02-18T10:45:52.784Z,66.10
2019-02-18T10:48:22.236Z,64.00
2019-02-18T10:50:51.808Z,62.30
2019-02-18T10:53:21.259Z,60.10
2019-02-18T10:55:50.725Z,60.90
2019-02-18T10:58:20.195Z,61.60
2019-02-18T11:00:49.810Z,59.50
2019-02-18T11:03:19.673Z,59.50
2019-02-18T11:05:49.139Z,58.60
2019-02-18T11:08:18.613Z,59.10
2019-02-18T11:10:48.078Z,58.90
2019-02-18T11:13:17.662Z,58.80
2019-02-18T11:15:47.139Z,57.70
2019-02-18T11:18:16.759Z,58.60
2019-02-18T11:20:46.321Z,58.50
2019-02-18T11:23:15.860Z,58.10
2019-02-18T11:25:45.786Z,58.80
2019-02-18T11:28:15.301Z,57.10
2019-02-18T11:30:44.763Z,57.00
2019-02-18T11:33:14.224Z,57.40
2019-02-18T11:35:43.709Z,58.00
2019-02-18T11:38:13.173Z,57.70
2019-02-18T11:40:42.716Z,57.70
2019-02-18T11:43:12.308Z,56.70
2019-02-18T11:45:41.780Z,55.80
2019-02-18T11:48:11.303Z,55.00
2019-02-18T11:50:40.771Z,55.10
2019-02-18T11:53:10.636Z,54.40
2019-02-18T11:55:40.115Z,53.40
2019-02-18T11:58:09.605Z,53.40
2019-02-18T12:00:39.087Z,54.40
2019-02-18T12:03:12.463Z,54.70
2019-02-18T12:05:39.889Z,52.50
2019-02-18T12:08:09.436Z,53.00
2019-02-18T12:10:39.048Z,53.20
2019-02-18T12:13:08.589Z,53.40
2019-02-18T12:15:38.136Z,52.10
2019-02-18T12:18:07.729Z,52.40
2019-02-18T12:20:37.335Z,52.30
2019-02-18T12:23:07.303Z,51.80
2019-02-18T12:25:36.633Z,51.40
2019-02-18T12:28:06.297Z,52.20
2019-02-18T12:30:35.736Z,52.60
2019-02-18T12:33:05.223Z,51.50
2019-02-18T12:35:34.964Z,51.90
2019-02-18T12:38:04.981Z,51.70
2019-02-18T12:40:34.473Z,51.40
2019-02-18T12:43:04.018Z,49.90
2019-02-18T12:45:33.609Z,49.80
2019-02-18T12:48:03.101Z,48.50
2019-02-18T12:50:32.571Z,48.70
2019-02-18T12:53:02.131Z,48.40
2019-02-18T12:55:31.873Z,47.30
2019-02-18T12:58:01.512Z,47.10
2019-02-18T13:00:31.186Z,47.60
2019-02-18T13:03:00.899Z,47.70
2019-02-18T13:05:30.383Z,47.70
2019-02-18T13:07:59.913Z,47.90
2019-02-18T13:13:00.722Z,47.30
2019-02-18T13:15:30.184Z,46.70
2019-02-18T13:20:29.272Z,47.70
2019-02-18T13:22:58.742Z,48.50
2019-02-18T13:25:28.488Z,47.60
2019-02-18T13:27:57.985Z,47.50
2019-02-18T13:30:27.451Z,47.80
2019-02-18T13:32:56.920Z,47.60
2019-02-18T13:35:26.459Z,47.10
2019-02-18T13:37:55.913Z,46.70
2019-02-18T13:40:25.678Z,46.10
2019-02-18T13:42:55.204Z,46.10
2019-02-18T13:45:24.998Z,45.30
2019-02-18T13:47:54.534Z,46.20
2019-02-18T13:50:24.154Z,46.30
2019-02-18T13:52:53.703Z,46.40
2019-02-18T13:55:23.334Z,45.60
2019-02-18T13:57:52.799Z,46.50
2019-02-18T14:00:23.038Z,46.90
2019-02-18T14:02:52.676Z,46.50
2019-02-18T14:05:23.014Z,46.00
2019-02-18T14:07:52.633Z,46.80
2019-02-18T14:10:22.892Z,45.70
2019-02-18T14:12:52.456Z,45.00
2019-02-18T14:15:22.090Z,44.40
2019-02-18T14:17:51.688Z,45.00
2019-02-18T14:20:21.343Z,45.90
2019-02-18T14:22:50.886Z,46.10
2019-02-18T14:25:20.594Z,46.20
2019-02-18T14:27:50.083Z,45.20
2019-02-18T14:30:20.022Z,45.70
2019-02-18T14:32:49.630Z,45.00
2019-02-18T14:35:19.498Z,45.30
2019-02-18T14:37:49.494Z,45.90
2019-02-18T14:40:20.489Z,46.30
2019-02-18T14:42:50.093Z,46.00
2019-02-18T14:45:19.620Z,46.30
2019-02-18T14:47:49.219Z,45.80
2019-02-18T14:50:19.568Z,45.10
2019-02-18T14:52:50.428Z,45.60
2019-02-18T14:55:20.031Z,45.20
2019-02-18T14:57:49.655Z,45.60
2019-02-18T15:00:23.882Z,45.90
2019-02-18T15:02:56.059Z,46.00
2019-02-18T15:05:27.106Z,45.40
2019-02-18T15:07:56.700Z,45.40
2019-02-18T15:10:26.255Z,46.30
2019-02-18T15:12:55.934Z,46.30
2019-02-18T15:15:25.463Z,46.50
2019-02-18T15:17:55.013Z,47.30
2019-02-18T15:20:24.638Z,47.00
2019-02-18T15:22:54.099Z,47.10
2019-02-18T15:25:23.636Z,46.80
2019-02-18T15:27:53.255Z,46.90
2019-02-18T15:30:22.954Z,47.20
2019-02-18T15:32:52.449Z,47.50
2019-02-18T15:35:22.055Z,47.90
2019-02-18T15:37:51.657Z,48.10
2019-02-18T15:40:21.299Z,48.30
2019-02-18T15:42:50.770Z,48.60
2019-02-18T15:45:20.365Z,48.90
2019-02-18T15:47:49.908Z,49.00
2019-02-18T15:50:19.512Z,49.20
2019-02-18T15:52:49.063Z,49.80
2019-02-18T15:55:18.645Z,50.30
2019-02-18T15:57:48.179Z,50.40
2019-02-18T16:00:24.852Z,50.70
2019-02-18T16:02:54.347Z,50.90
2019-02-18T16:05:24.085Z,51.10
2019-02-18T16:07:53.570Z,51.30
2019-02-18T16:10:23.125Z,51.60
2019-02-18T16:12:52.591Z,51.70
2019-02-18T16:15:21.948Z,52.00
2019-02-18T16:17:51.462Z,52.20
2019-02-18T16:20:21.011Z,52.40
2019-02-18T16:22:50.464Z,52.80
2019-02-18T16:25:25.024Z,53.10
2019-02-18T16:27:54.562Z,53.50
2019-02-18T16:30:24.480Z,53.60
2019-02-18T16:32:54.112Z,53.90
2019-02-18T16:35:23.671Z,54.10
2019-02-18T16:37:53.165Z,54.50
2019-02-18T16:40:23.121Z,54.80
2019-02-18T16:42:59.034Z,55.00
2019-02-18T16:45:23.809Z,55.90
2019-02-18T16:47:53.382Z,55.60
2019-02-18T16:50:22.918Z,56.00
2019-02-18T16:52:52.228Z,56.10
2019-02-18T16:55:21.708Z,56.30
2019-02-18T16:57:51.640Z,56.50
2019-02-18T17:00:28.968Z,56.70
2019-02-18T17:02:58.417Z,56.80
2019-02-18T17:05:28.042Z,57.30
2019-02-18T17:07:57.525Z,57.80
2019-02-18T17:10:27.060Z,58.10
2019-02-18T17:12:56.636Z,58.60
2019-02-18T17:15:26.172Z,58.70
2019-02-18T17:17:55.716Z,58.80
2019-02-18T17:20:25.282Z,59.00
2019-02-18T17:22:54.884Z,59.30
2019-02-18T17:25:24.488Z,59.70
2019-02-18T17:27:53.978Z,59.80
2019-02-18T17:30:23.500Z,60.00
2019-02-18T17:32:53.061Z,60.80
2019-02-18T17:35:22.617Z,60.90
2019-02-18T17:37:52.181Z,62.50
2019-02-18T17:40:21.792Z,62.40
2019-02-18T17:42:51.344Z,63.00
2019-02-18T17:45:20.990Z,63.40
2019-02-18T17:47:50.612Z,63.90
2019-02-18T17:50:20.356Z,64.20
2019-02-18T17:52:49.879Z,64.80
2019-02-18T17:55:20.544Z,65.70
2019-02-18T17:57:50.079Z,66.10
2019-02-18T18:00:26.396Z,66.40
2019-02-18T18:02:55.919Z,66.60
2019-02-18T18:05:25.437Z,67.30
2019-02-18T18:07:54.897Z,68.10
2019-02-18T18:10:24.338Z,68.90
2019-02-18T18:12:53.856Z,69.20
2019-02-18T18:15:23.558Z,69.70
2019-02-18T18:17:53.084Z,70.10
2019-02-18T18:20:22.463Z,70.90
2019-02-18T18:22:51.944Z,71.80
2019-02-18T18:25:21.483Z,71.70
2019-02-18T18:27:50.940Z,72.00
2019-02-18T18:30:20.904Z,72.40
2019-02-18T18:32:50.465Z,73.00
2019-02-18T18:35:19.933Z,73.10
2019-02-18T18:37:49.471Z,73.20
2019-02-18T18:40:20.476Z,73.30
2019-02-18T18:42:49.924Z,73.90
2019-02-18T18:45:20.037Z,74.00
2019-02-18T18:47:49.718Z,74.80
2019-02-18T18:50:22.145Z,75.70
2019-02-18T18:52:51.696Z,75.60
2019-02-18T18:55:21.223Z,76.00
2019-02-18T18:57:50.713Z,76.20
2019-02-18T19:00:24.567Z,76.00
2019-02-18T19:02:54.183Z,76.40
2019-02-18T19:05:23.873Z,76.30
2019-02-18T19:07:53.525Z,76.90
2019-02-18T19:10:23.135Z,77.10
2019-02-18T19:12:52.657Z,77.20
2019-02-18T19:15:22.173Z,77.50
2019-02-18T19:17:51.644Z,77.20
2019-02-18T19:20:21.331Z,77.40
2019-02-18T19:22:50.871Z,77.90
2019-02-18T19:25:20.331Z,78.00
2019-02-18T19:27:49.817Z,78.00
2019-02-18T19:30:26.805Z,77.80
2019-02-18T19:32:56.345Z,78.00
2019-02-18T19:35:25.790Z,78.20
2019-02-18T19:37:55.284Z,78.00
2019-02-18T19:40:24.843Z,78.90
2019-02-18T19:42:54.396Z,78.50
2019-02-18T19:45:25.224Z,78.10
2019-02-18T19:47:54.724Z,78.20
2019-02-18T19:50:24.244Z,78.60
2019-02-18T19:52:53.728Z,78.90
2019-02-18T19:55:23.245Z,78.80
2019-02-18T19:57:52.711Z,79.10
2019-02-18T20:00:22.725Z,79.00
2019-02-18T20:02:52.409Z,78.60
2019-02-18T20:05:21.875Z,78.40
2019-02-18T20:07:51.353Z,78.80
2019-02-18T20:10:20.811Z,78.50
2019-02-18T20:12:50.339Z,78.90
2019-02-18T20:15:19.799Z,79.40
2019-02-18T20:17:50.800Z,79.40
2019-02-18T20:20:20.275Z,79.30
2019-02-18T20:22:49.757Z,79.60
2019-02-18T20:25:19.230Z,79.50
2019-02-18T20:27:48.885Z,79.40
2019-02-18T20:30:19.083Z,80.00
2019-02-18T20:32:48.673Z,80.00
2019-02-18T20:35:18.290Z,79.90
2019-02-18T20:37:48.157Z,80.30
2019-02-18T20:40:17.684Z,80.50
2019-02-18T20:42:47.159Z,80.90
2019-02-18T20:45:16.778Z,81.30
2019-02-18T20:47:46.272Z,81.90
2019-02-18T20:50:16.554Z,81.60
2019-02-18T20:52:46.027Z,82.10
2019-02-18T20:55:16.535Z,82.20
2019-02-18T20:57:46.036Z,82.50
2019-02-18T21:00:21.090Z,83.00
2019-02-18T21:02:50.606Z,82.60
2019-02-18T21:05:19.978Z,82.70
2019-02-18T21:07:49.429Z,82.40
2019-02-18T21:10:21.107Z,82.70
2019-02-18T21:12:50.761Z,82.70
2019-02-18T21:15:20.365Z,82.60
2019-02-18T21:17:49.998Z,82.60
2019-02-18T21:20:19.614Z,82.60
2019-02-18T21:22:49.848Z,82.70
2019-02-18T21:25:19.359Z,82.50
2019-02-18T21:27:48.893Z,82.60
2019-02-18T21:30:19.143Z,82.80
2019-02-18T21:32:48.628Z,82.50
2019-02-18T21:35:18.243Z,82.20
2019-02-18T21:37:47.802Z,82.50
2019-02-18T21:40:17.447Z,82.50
2019-02-18T21:42:46.896Z,82.60
2019-02-18T21:45:17.045Z,82.70
2019-02-18T21:47:46.531Z,82.80
2019-02-18T21:50:16.065Z,83.00
2019-02-18T21:52:45.564Z,82.80
2019-02-18T21:55:15.156Z,83.20
2019-02-18T21:57:44.700Z,83.80
2019-02-18T22:00:24.333Z,84.00
2019-02-18T22:02:53.849Z,84.60
2019-02-18T22:05:23.318Z,84.60
2019-02-18T22:07:52.806Z,85.10
2019-02-18T22:10:22.264Z,84.80
2019-02-18T22:12:51.744Z,84.60
2019-02-18T22:15:21.306Z,85.20
2019-02-18T22:17:50.825Z,85.60
2019-02-18T22:20:20.894Z,86.10
2019-02-18T22:22:50.599Z,87.10
2019-02-18T22:25:20.086Z,86.80
2019-02-18T22:27:49.530Z,87.20
2019-02-18T22:30:19.126Z,87.30
2019-02-18T22:32:48.615Z,86.70
2019-02-18T22:35:18.361Z,86.80
2019-02-18T22:37:47.867Z,87.70
2019-02-18T22:40:17.324Z,87.70
2019-02-18T22:42:46.782Z,87.30
2019-02-18T22:45:16.327Z,87.80
2019-02-18T22:47:45.798Z,87.70
2019-02-18T22:50:15.706Z,87.60
2019-02-18T22:52:45.183Z,87.70
2019-02-18T22:55:14.725Z,87.70
2019-02-18T22:57:44.251Z,87.70
2019-02-18T23:00:43.905Z,87.30
2019-02-18T23:03:13.634Z,87.40
2019-02-18T23:05:43.084Z,87.20
2019-02-18T23:08:12.643Z,87.00
2019-02-18T23:10:42.154Z,87.20
2019-02-18T23:13:11.636Z,87.60
2019-02-18T23:15:41.452Z,87.50
2019-02-18T23:18:10.976Z,87.30
2019-02-18T23:20:40.621Z,87.60
2019-02-18T23:23:10.093Z,87.70
2019-02-18T23:25:39.557Z,87.50
2019-02-18T23:28:09.013Z,87.80
2019-02-18T23:30:38.773Z,87.90
2019-02-18T23:33:08.364Z,87.80
2019-02-18T23:35:39.008Z,87.90
2019-02-18T23:38:08.603Z,88.40
2019-02-18T23:40:38.057Z,88.40
2019-02-18T23:43:07.588Z,88.40
2019-02-18T23:45:37.147Z,88.80
2019-02-18T23:48:06.710Z,89.10
2019-02-18T23:50:36.184Z,89.60
2019-02-18T23:53:05.636Z,89.40
2019-02-18T23:55:35.131Z,89.20
2019-02-18T23:58:04.635Z,89.50
